Terminal Aerodrome Forecast
Issued by NWS Tiyan, Guam

Home | Current Version | Previous Version | Text Only | Print | Product List | Glossary On
Versions: 1 2 3 4 5 6 7 8 9 10 11 12 13 14 15
000
FTPQ31 PGUM 300520
TAFGUM
TAF
PGUM 300520Z 3006/3112 12008KT P6SM VCSH SCT018 SCT030 BKN050
      TEMPO 3006/3008 SCT014 BKN025=

USA.gov is the U.S. government's official web portal to all federal, state and local government web resources and services.